sensor_id;sensor_type;location;lat;lon;timestamp;pressure;altitude;pressure_sealevel;temperature;humidity
31183;BME280;17813;0.000;0.000;2023-03-14T00:02:20;97317.28;;;10.52;89.92
31183;BME280;17813;0.000;0.000;2023-03-14T00:04:48;97307.81;;;10.50;89.61
31183;BME280;17813;0.000;0.000;2023-03-14T00:07:15;97306.16;;;10.49;89.34
31183;BME280;17813;0.000;0.000;2023-03-14T00:09:42;97306.97;;;10.49;89.76
31183;BME280;17813;0.000;0.000;2023-03-14T00:12:09;97303.34;;;10.50;89.14
31183;BME280;17813;0.000;0.000;2023-03-14T00:14:37;97306.75;;;10.43;89.65
31183;BME280;17813;0.000;0.000;2023-03-14T00:17:03;97312.44;;;10.38;89.91
31183;BME280;17813;0.000;0.000;2023-03-14T00:19:30;97317.88;;;10.37;90.56
31183;BME280;17813;0.000;0.000;2023-03-14T00:21:58;97321.78;;;10.42;90.10
31183;BME280;17813;0.000;0.000;2023-03-14T00:24:25;97319.56;;;10.38;89.71
31183;BME280;17813;0.000;0.000;2023-03-14T00:26:52;97320.66;;;10.45;90.21
31183;BME280;17813;0.000;0.000;2023-03-14T00:29:19;97319.69;;;10.46;89.72
31183;BME280;17813;0.000;0.000;2023-03-14T00:31:46;97325.53;;;10.40;89.62
31183;BME280;17813;0.000;0.000;2023-03-14T00:34:16;97305.47;;;10.37;89.77
31183;BME280;17813;0.000;0.000;2023-03-14T00:36:44;97298.94;;;10.41;89.26
31183;BME280;17813;0.000;0.000;2023-03-14T00:39:11;97281.91;;;10.44;89.35
31183;BME280;17813;0.000;0.000;2023-03-14T00:41:38;97284.66;;;10.52;88.75
31183;BME280;17813;0.000;0.000;2023-03-14T00:44:05;97276.56;;;10.53;88.29
31183;BME280;17813;0.000;0.000;2023-03-14T00:46:31;97277.53;;;10.52;88.57
31183;BME280;17813;0.000;0.000;2023-03-14T00:48:59;97280.03;;;10.54;88.48
31183;BME280;17813;0.000;0.000;2023-03-14T00:51:26;97293.97;;;10.56;87.97
31183;BME280;17813;0.000;0.000;2023-03-14T00:53:53;97303.31;;;10.60;87.28
31183;BME280;17813;0.000;0.000;2023-03-14T00:56:20;97315.88;;;10.58;87.30
31183;BME280;17813;0.000;0.000;2023-03-14T00:58:47;97334.56;;;10.56;87.91
31183;BME280;17813;0.000;0.000;2023-03-14T01:01:16;97339.13;;;10.64;87.21
31183;BME280;17813;0.000;0.000;2023-03-14T01:03:44;97351.13;;;10.68;87.43
31183;BME280;17813;0.000;0.000;2023-03-14T01:06:17;97327.25;;;10.68;86.29
31183;BME280;17813;0.000;0.000;2023-03-14T01:08:45;97325.59;;;10.67;86.66
31183;BME280;17813;0.000;0.000;2023-03-14T01:11:16;97332.94;;;10.73;86.32
31183;BME280;17813;0.000;0.000;2023-03-14T01:13:43;97328.34;;;10.75;86.03
31183;BME280;17813;0.000;0.000;2023-03-14T01:16:12;97330.88;;;10.67;85.74
31183;BME280;17813;0.000;0.000;2023-03-14T01:18:40;97330.19;;;10.65;86.03
31183;BME280;17813;0.000;0.000;2023-03-14T01:21:18;97327.94;;;10.70;85.92
31183;BME280;17813;0.000;0.000;2023-03-14T01:23:48;97335.50;;;10.65;85.71
31183;BME280;17813;0.000;0.000;2023-03-14T01:26:18;97331.31;;;10.62;85.27
31183;BME280;17813;0.000;0.000;2023-03-14T01:28:49;97340.91;;;10.73;85.20
31183;BME280;17813;0.000;0.000;2023-03-14T01:31:17;97335.34;;;10.67;84.90
31183;BME280;17813;0.000;0.000;2023-03-14T01:33:44;97339.19;;;10.82;84.79
31183;BME280;17813;0.000;0.000;2023-03-14T01:36:11;97346.88;;;10.75;84.82
31183;BME280;17813;0.000;0.000;2023-03-14T01:38:40;97342.72;;;10.73;84.41
31183;BME280;17813;0.000;0.000;2023-03-14T01:41:11;97346.50;;;10.70;84.63
31183;BME280;17813;0.000;0.000;2023-03-14T01:43:39;97327.25;;;10.68;83.93
31183;BME280;17813;0.000;0.000;2023-03-14T01:48:45;97314.47;;;10.81;82.93
31183;BME280;17813;0.000;0.000;2023-03-14T01:51:28;97315.38;;;10.72;82.97
31183;BME280;17813;0.000;0.000;2023-03-14T01:54:05;97308.41;;;10.71;82.38
31183;BME280;17813;0.000;0.000;2023-03-14T01:56:36;97309.47;;;10.78;83.04
31183;BME280;17813;0.000;0.000;2023-03-14T01:59:06;97305.91;;;10.70;82.24
31183;BME280;17813;0.000;0.000;2023-03-14T02:01:33;97309.25;;;10.72;81.60
31183;BME280;17813;0.000;0.000;2023-03-14T02:04:03;97298.53;;;10.63;81.90
31183;BME280;17813;0.000;0.000;2023-03-14T02:06:56;97300.91;;;10.67;81.26
31183;BME280;17813;0.000;0.000;2023-03-14T02:09:25;97297.25;;;10.68;81.79
31183;BME280;17813;0.000;0.000;2023-03-14T02:11:52;97299.09;;;10.67;81.34
31183;BME280;17813;0.000;0.000;2023-03-14T02:14:34;97304.53;;;10.66;80.31
31183;BME280;17813;0.000;0.000;2023-03-14T02:17:04;97296.81;;;10.72;80.49
31183;BME280;17813;0.000;0.000;2023-03-14T02:19:50;97282.50;;;10.65;80.48
31183;BME280;17813;0.000;0.000;2023-03-14T02:22:22;97280.00;;;10.63;80.90
31183;BME280;17813;0.000;0.000;2023-03-14T02:27:22;97266.59;;;10.65;80.71
31183;BME280;17813;0.000;0.000;2023-03-14T02:29:59;97256.72;;;10.57;80.32
31183;BME280;17813;0.000;0.000;2023-03-14T02:32:28;97253.94;;;10.59;80.46
31183;BME280;17813;0.000;0.000;2023-03-14T02:35:02;97257.13;;;10.62;80.16
31183;BME280;17813;0.000;0.000;2023-03-14T02:40:27;97253.31;;;10.47;81.07
31183;BME280;17813;0.000;0.000;2023-03-14T02:42:53;97237.94;;;10.51;79.98
31183;BME280;17813;0.000;0.000;2023-03-14T02:47:54;97247.41;;;10.53;80.49
31183;BME280;17813;0.000;0.000;2023-03-14T02:50:24;97252.84;;;10.52;80.07
31183;BME280;17813;0.000;0.000;2023-03-14T02:52:53;97248.78;;;10.57;79.76
31183;BME280;17813;0.000;0.000;2023-03-14T02:55:23;97250.59;;;10.57;79.82
31183;BME280;17813;0.000;0.000;2023-03-14T02:57:51;97254.22;;;10.56;79.07
31183;BME280;17813;0.000;0.000;2023-03-14T03:00:18;97270.81;;;10.58;78.79
31183;BME280;17813;0.000;0.000;2023-03-14T03:02:46;97278.72;;;10.68;78.10
31183;BME280;17813;0.000;0.000;2023-03-14T03:05:13;97270.00;;;10.75;78.13
31183;BME280;17813;0.000;0.000;2023-03-14T03:07:40;97257.00;;;10.82;77.89
31183;BME280;17813;0.000;0.000;2023-03-14T03:10:07;97264.78;;;10.83;78.08
31183;BME280;17813;0.000;0.000;2023-03-14T03:12:34;97243.28;;;10.86;77.74
31183;BME280;17813;0.000;0.000;2023-03-14T03:15:01;97243.38;;;10.94;77.38
31183;BME280;17813;0.000;0.000;2023-03-14T03:17:28;97242.69;;;10.92;77.02
31183;BME280;17813;0.000;0.000;2023-03-14T03:19:56;97247.84;;;10.94;76.81
31183;BME280;17813;0.000;0.000;2023-03-14T03:22:22;97240.47;;;11.06;76.88
31183;BME280;17813;0.000;0.000;2023-03-14T03:24:49;97224.03;;;11.02;76.24
31183;BME280;17813;0.000;0.000;2023-03-14T03:27:17;97213.44;;;11.02;76.45
31183;BME280;17813;0.000;0.000;2023-03-14T03:29:44;97210.94;;;11.01;75.98
31183;BME280;17813;0.000;0.000;2023-03-14T03:32:10;97195.41;;;11.06;75.46
31183;BME280;17813;0.000;0.000;2023-03-14T03:34:38;97179.19;;;10.91;75.93
31183;BME280;17813;0.000;0.000;2023-03-14T03:37:05;97198.75;;;10.90;76.00
31183;BME280;17813;0.000;0.000;2023-03-14T03:39:32;97173.06;;;10.90;75.40
31183;BME280;17813;0.000;0.000;2023-03-14T03:41:59;97180.72;;;10.76;76.02
31183;BME280;17813;0.000;0.000;2023-03-14T03:44:26;97187.91;;;10.83;75.35
31183;BME280;17813;0.000;0.000;2023-03-14T03:46:53;97183.53;;;10.74;75.53
31183;BME280;17813;0.000;0.000;2023-03-14T03:49:19;97171.03;;;10.67;75.41
31183;BME280;17813;0.000;0.000;2023-03-14T03:51:46;97183.66;;;10.73;75.34
31183;BME280;17813;0.000;0.000;2023-03-14T03:54:14;97185.19;;;10.75;75.63
31183;BME280;17813;0.000;0.000;2023-03-14T03:56:40;97201.69;;;10.69;75.41
31183;BME280;17813;0.000;0.000;2023-03-14T03:59:07;97195.25;;;10.72;75.17
31183;BME280;17813;0.000;0.000;2023-03-14T04:01:34;97181.03;;;10.73;75.24
31183;BME280;17813;0.000;0.000;2023-03-14T04:04:01;97180.09;;;10.64;75.27
31183;BME280;17813;0.000;0.000;2023-03-14T04:06:28;97180.63;;;10.68;75.36
31183;BME280;17813;0.000;0.000;2023-03-14T04:08:55;97172.16;;;10.64;75.25
31183;BME280;17813;0.000;0.000;2023-03-14T04:11:23;97166.31;;;10.60;74.99
31183;BME280;17813;0.000;0.000;2023-03-14T04:13:50;97169.97;;;10.59;75.09
31183;BME280;17813;0.000;0.000;2023-03-14T04:16:26;97165.94;;;10.55;74.83
31183;BME280;17813;0.000;0.000;2023-03-14T04:18:53;97158.44;;;10.51;75.08
31183;BME280;17813;0.000;0.000;2023-03-14T04:21:20;97160.34;;;10.58;75.10
31183;BME280;17813;0.000;0.000;2023-03-14T04:23:48;97163.16;;;10.57;75.29
31183;BME280;17813;0.000;0.000;2023-03-14T04:26:15;97161.63;;;10.54;75.55
31183;BME280;17813;0.000;0.000;2023-03-14T04:28:42;97171.69;;;10.51;75.35
31183;BME280;17813;0.000;0.000;2023-03-14T04:31:16;97167.69;;;10.47;75.09
31183;BME280;17813;0.000;0.000;2023-03-14T04:33:47;97156.56;;;10.43;75.36
31183;BME280;17813;0.000;0.000;2023-03-14T04:36:32;97157.09;;;10.47;75.25
31183;BME280;17813;0.000;0.000;2023-03-14T04:38:59;97157.09;;;10.47;75.27
31183;BME280;17813;0.000;0.000;2023-03-14T04:41:26;97149.38;;;10.53;74.79
31183;BME280;17813;0.000;0.000;2023-03-14T04:43:53;97141.19;;;10.47;75.19
31183;BME280;17813;0.000;0.000;2023-03-14T04:46:20;97140.88;;;10.50;74.82
31183;BME280;17813;0.000;0.000;2023-03-14T04:48:47;97141.34;;;10.45;74.77
31183;BME280;17813;0.000;0.000;2023-03-14T04:51:14;97143.16;;;10.45;74.90
31183;BME280;17813;0.000;0.000;2023-03-14T04:53:41;97148.09;;;10.30;75.38
31183;BME280;17813;0.000;0.000;2023-03-14T04:56:09;97144.16;;;10.34;75.46
31183;BME280;17813;0.000;0.000;2023-03-14T04:58:36;97159.09;;;10.35;75.20
31183;BME280;17813;0.000;0.000;2023-03-14T05:01:04;97157.56;;;10.32;75.52
31183;BME280;17813;0.000;0.000;2023-03-14T05:03:31;97149.47;;;10.34;74.97
31183;BME280;17813;0.000;0.000;2023-03-14T05:06:01;97134.78;;;10.22;75.45
31183;BME280;17813;0.000;0.000;2023-03-14T05:08:28;97120.31;;;10.34;75.01
31183;BME280;17813;0.000;0.000;2023-03-14T05:10:58;97106.94;;;10.36;75.06
31183;BME280;17813;0.000;0.000;2023-03-14T05:13:29;97123.13;;;10.32;75.07
31183;BME280;17813;0.000;0.000;2023-03-14T05:16:05;97120.88;;;10.38;74.81
31183;BME280;17813;0.000;0.000;2023-03-14T05:18:33;97123.09;;;10.42;74.79
31183;BME280;17813;0.000;0.000;2023-03-14T05:21:00;97116.97;;;10.42;75.14
31183;BME280;17813;0.000;0.000;2023-03-14T05:23:27;97101.78;;;10.34;75.13
31183;BME280;17813;0.000;0.000;2023-03-14T05:25:54;97097.13;;;10.46;74.90
31183;BME280;17813;0.000;0.000;2023-03-14T05:28:21;97081.91;;;10.48;74.80
31183;BME280;17813;0.000;0.000;2023-03-14T05:30:48;97090.53;;;10.50;75.00
31183;BME280;17813;0.000;0.000;2023-03-14T05:33:15;97094.84;;;10.51;74.48
31183;BME280;17813;0.000;0.000;2023-03-14T05:35:43;97104.63;;;10.50;74.66
31183;BME280;17813;0.000;0.000;2023-03-14T05:38:09;97087.59;;;10.53;74.31
31183;BME280;17813;0.000;0.000;2023-03-14T05:40:36;97105.00;;;10.55;74.21
31183;BME280;17813;0.000;0.000;2023-03-14T05:43:03;97106.50;;;10.58;73.98
31183;BME280;17813;0.000;0.000;2023-03-14T05:45:30;97111.81;;;10.58;73.82
31183;BME280;17813;0.000;0.000;2023-03-14T05:47:57;97113.78;;;10.56;73.96
31183;BME280;17813;0.000;0.000;2023-03-14T05:50:24;97119.59;;;10.59;73.95
31183;BME280;17813;0.000;0.000;2023-03-14T05:52:50;97112.19;;;10.63;73.59
31183;BME280;17813;0.000;0.000;2023-03-14T05:55:23;97123.78;;;10.62;73.38
31183;BME280;17813;0.000;0.000;2023-03-14T05:57:50;97120.91;;;10.55;73.64
31183;BME280;17813;0.000;0.000;2023-03-14T06:00:17;97119.16;;;10.64;73.37
31183;BME280;17813;0.000;0.000;2023-03-14T06:02:49;97123.31;;;10.67;72.81
31183;BME280;17813;0.000;0.000;2023-03-14T06:05:16;97116.41;;;10.74;72.81
31183;BME280;17813;0.000;0.000;2023-03-14T06:07:42;97119.38;;;10.71;72.40
31183;BME280;17813;0.000;0.000;2023-03-14T06:10:11;97120.06;;;10.73;72.64
31183;BME280;17813;0.000;0.000;2023-03-14T06:12:39;97114.81;;;10.81;72.60
31183;BME280;17813;0.000;0.000;2023-03-14T06:15:06;97116.78;;;10.79;72.29
31183;BME280;17813;0.000;0.000;2023-03-14T06:17:33;97127.91;;;10.82;72.44
31183;BME280;17813;0.000;0.000;2023-03-14T06:20:00;97112.94;;;10.73;71.93
31183;BME280;17813;0.000;0.000;2023-03-14T06:22:28;97129.75;;;10.82;71.98
31183;BME280;17813;0.000;0.000;2023-03-14T06:24:55;97122.53;;;10.92;71.64
31183;BME280;17813;0.000;0.000;2023-03-14T06:27:21;97121.38;;;10.94;71.74
31183;BME280;17813;0.000;0.000;2023-03-14T06:29:49;97126.38;;;10.98;71.67
31183;BME280;17813;0.000;0.000;2023-03-14T06:32:15;97124.56;;;10.98;71.58
31183;BME280;17813;0.000;0.000;2023-03-14T06:34:42;97123.28;;;11.02;71.81
31183;BME280;17813;0.000;0.000;2023-03-14T06:37:10;97120.78;;;11.01;71.78
31183;BME280;17813;0.000;0.000;2023-03-14T06:39:37;97133.50;;;10.97;71.56
31183;BME280;17813;0.000;0.000;2023-03-14T06:42:05;97120.63;;;11.02;71.34
31183;BME280;17813;0.000;0.000;2023-03-14T06:44:32;97123.28;;;11.02;71.15
31183;BME280;17813;0.000;0.000;2023-03-14T06:47:03;97119.94;;;11.00;71.17
31183;BME280;17813;0.000;0.000;2023-03-14T06:49:29;97121.19;;;11.14;70.81
31183;BME280;17813;0.000;0.000;2023-03-14T06:51:56;97115.59;;;11.17;70.69
31183;BME280;17813;0.000;0.000;2023-03-14T06:54:24;97114.59;;;11.18;71.23
31183;BME280;17813;0.000;0.000;2023-03-14T06:56:51;97121.63;;;11.27;70.73
31183;BME280;17813;0.000;0.000;2023-03-14T06:59:17;97122.97;;;11.31;70.60
31183;BME280;17813;0.000;0.000;2023-03-14T07:01:48;97116.69;;;11.32;70.24
31183;BME280;17813;0.000;0.000;2023-03-14T07:04:17;97117.03;;;11.37;70.40
31183;BME280;17813;0.000;0.000;2023-03-14T07:06:44;97123.59;;;11.51;70.07
31183;BME280;17813;0.000;0.000;2023-03-14T07:09:13;97132.53;;;11.50;68.95
31183;BME280;17813;0.000;0.000;2023-03-14T07:11:41;97132.22;;;11.53;68.94
31183;BME280;17813;0.000;0.000;2023-03-14T07:14:07;97126.28;;;11.59;68.64
31183;BME280;17813;0.000;0.000;2023-03-14T07:16:35;97130.69;;;11.76;68.61
31183;BME280;17813;0.000;0.000;2023-03-14T07:19:02;97130.81;;;11.67;67.86
31183;BME280;17813;0.000;0.000;2023-03-14T07:21:29;97136.81;;;11.77;67.50
31183;BME280;17813;0.000;0.000;2023-03-14T07:23:56;97143.91;;;11.94;66.77
31183;BME280;17813;0.000;0.000;2023-03-14T07:26:23;97146.78;;;12.09;66.70
31183;BME280;17813;0.000;0.000;2023-03-14T07:28:50;97153.78;;;12.18;65.97
31183;BME280;17813;0.000;0.000;2023-03-14T07:31:17;97155.31;;;12.29;65.80
31183;BME280;17813;0.000;0.000;2023-03-14T07:33:44;97151.81;;;12.28;64.43
31183;BME280;17813;0.000;0.000;2023-03-14T07:36:11;97155.31;;;12.29;64.56
31183;BME280;17813;0.000;0.000;2023-03-14T07:38:38;97142.03;;;12.37;64.25
31183;BME280;17813;0.000;0.000;2023-03-14T07:41:06;97160.16;;;12.33;64.89
31183;BME280;17813;0.000;0.000;2023-03-14T07:43:34;97153.97;;;12.24;64.65
31183;BME280;17813;0.000;0.000;2023-03-14T07:46:02;97145.84;;;12.34;65.24
31183;BME280;17813;0.000;0.000;2023-03-14T07:48:29;97135.56;;;12.39;64.43
31183;BME280;17813;0.000;0.000;2023-03-14T07:50:57;97142.72;;;12.47;64.73
31183;BME280;17813;0.000;0.000;2023-03-14T07:53:24;97140.25;;;12.45;63.85
31183;BME280;17813;0.000;0.000;2023-03-14T07:55:53;97135.75;;;12.46;62.84
31183;BME280;17813;0.000;0.000;2023-03-14T07:58:20;97145.22;;;12.48;64.15
31183;BME280;17813;0.000;0.000;2023-03-14T08:00:52;97138.44;;;12.54;64.12
31183;BME280;17813;0.000;0.000;2023-03-14T08:03:20;97140.94;;;12.72;64.39
31183;BME280;17813;0.000;0.000;2023-03-14T08:05:51;97133.47;;;12.83;63.63
31183;BME280;17813;0.000;0.000;2023-03-14T08:08:18;97146.75;;;12.67;63.11
31183;BME280;17813;0.000;0.000;2023-03-14T08:10:51;97143.41;;;12.57;63.78
31183;BME280;17813;0.000;0.000;2023-03-14T08:13:21;97142.41;;;12.58;64.10
31183;BME280;17813;0.000;0.000;2023-03-14T08:15:50;97140.94;;;12.72;63.58
31183;BME280;17813;0.000;0.000;2023-03-14T08:18:20;97133.97;;;12.71;62.96
31183;BME280;17813;0.000;0.000;2023-03-14T08:20:47;97141.25;;;12.61;63.47
31183;BME280;17813;0.000;0.000;2023-03-14T08:23:14;97138.25;;;12.55;63.39
31183;BME280;17813;0.000;0.000;2023-03-14T08:25:41;97148.56;;;12.50;63.72
31183;BME280;17813;0.000;0.000;2023-03-14T08:28:08;97135.44;;;12.49;63.78
31183;BME280;17813;0.000;0.000;2023-03-14T08:30:35;97135.25;;;12.50;63.75
31183;BME280;17813;0.000;0.000;2023-03-14T08:33:02;97126.59;;;12.40;63.50
31183;BME280;17813;0.000;0.000;2023-03-14T08:35:29;97138.41;;;12.38;63.79
31183;BME280;17813;0.000;0.000;2023-03-14T08:37:56;97139.09;;;12.48;64.01
31183;BME280;17813;0.000;0.000;2023-03-14T08:40:23;97139.28;;;12.63;64.06
31183;BME280;17813;0.000;0.000;2023-03-14T08:42:51;97144.09;;;12.67;63.56
31183;BME280;17813;0.000;0.000;2023-03-14T08:45:18;97140.13;;;12.71;63.23
31183;BME280;17813;0.000;0.000;2023-03-14T08:47:45;97148.75;;;12.65;62.44
31183;BME280;17813;0.000;0.000;2023-03-14T08:50:13;97147.28;;;12.79;62.99
31183;BME280;17813;0.000;0.000;2023-03-14T08:52:43;97147.59;;;12.76;62.89
31183;BME280;17813;0.000;0.000;2023-03-14T08:55:13;97156.91;;;12.72;62.29
31183;BME280;17813;0.000;0.000;2023-03-14T08:57:40;97144.59;;;12.79;62.92
31183;BME280;17813;0.000;0.000;2023-03-14T09:00:08;97148.94;;;12.80;62.34
31183;BME280;17813;0.000;0.000;2023-03-14T09:02:41;97148.44;;;12.84;62.52
31183;BME280;17813;0.000;0.000;2023-03-14T09:05:10;97152.75;;;12.69;62.03
31183;BME280;17813;0.000;0.000;2023-03-14T09:07:37;97157.91;;;12.79;62.33
31183;BME280;17813;0.000;0.000;2023-03-14T09:10:05;97161.41;;;12.79;62.16
31183;BME280;17813;0.000;0.000;2023-03-14T09:12:33;97153.59;;;12.94;61.99
31183;BME280;17813;0.000;0.000;2023-03-14T09:15:00;97155.13;;;13.05;61.92
31183;BME280;17813;0.000;0.000;2023-03-14T09:17:27;97157.94;;;13.11;61.10
31183;BME280;17813;0.000;0.000;2023-03-14T09:19:55;97152.00;;;13.17;62.01
31183;BME280;17813;0.000;0.000;2023-03-14T09:22:24;97149.97;;;13.11;60.56
31183;BME280;17813;0.000;0.000;2023-03-14T09:24:51;97153.66;;;13.18;61.24
31183;BME280;17813;0.000;0.000;2023-03-14T09:27:18;97155.78;;;13.15;61.15
31183;BME280;17813;0.000;0.000;2023-03-14T09:29:45;97150.78;;;13.12;60.74
31183;BME280;17813;0.000;0.000;2023-03-14T09:32:13;97155.47;;;13.18;61.05
31183;BME280;17813;0.000;0.000;2023-03-14T09:34:41;97157.44;;;13.16;61.17
31183;BME280;17813;0.000;0.000;2023-03-14T09:37:08;97164.59;;;13.07;61.49
31183;BME280;17813;0.000;0.000;2023-03-14T09:39:35;97150.63;;;13.05;61.29
31183;BME280;17813;0.000;0.000;2023-03-14T09:42:04;97165.94;;;13.52;60.97
31183;BME280;17813;0.000;0.000;2023-03-14T09:44:37;97155.56;;;15.05;56.22
31183;BME280;17813;0.000;0.000;2023-03-14T09:47:10;97129.56;;;16.91;52.61
31183;BME280;17813;0.000;0.000;2023-03-14T09:49:41;97140.31;;;18.03;47.71
31183;BME280;17813;0.000;0.000;2023-03-14T09:52:24;97123.91;;;17.56;48.88
31183;BME280;17813;0.000;0.000;2023-03-14T09:54:54;97125.56;;;17.29;49.18
31183;BME280;17813;0.000;0.000;2023-03-14T09:57:27;97133.25;;;17.11;49.03
31183;BME280;17813;0.000;0.000;2023-03-14T09:59:58;97125.13;;;17.54;48.70
31183;BME280;17813;0.000;0.000;2023-03-14T10:02:35;97126.94;;;16.97;48.59
31183;BME280;17813;0.000;0.000;2023-03-14T10:05:05;97116.31;;;16.83;50.34
31183;BME280;17813;0.000;0.000;2023-03-14T10:07:36;97115.53;;;16.17;50.73
31183;BME280;17813;0.000;0.000;2023-03-14T10:10:11;97128.59;;;16.98;49.26
31183;BME280;17813;0.000;0.000;2023-03-14T10:12:45;97125.97;;;17.26;48.83
31183;BME280;17813;0.000;0.000;2023-03-14T10:15:15;97140.19;;;17.06;49.07
31183;BME280;17813;0.000;0.000;2023-03-14T10:17:50;97129.75;;;16.17;50.51
31183;BME280;17813;0.000;0.000;2023-03-14T10:20:37;97147.34;;;16.12;51.72
31183;BME280;17813;0.000;0.000;2023-03-14T10:25:43;97148.16;;;16.78;50.80
31183;BME280;17813;0.000;0.000;2023-03-14T10:28:32;97136.56;;;16.92;49.12
31183;BME280;17813;0.000;0.000;2023-03-14T10:31:02;97147.34;;;16.77;49.64
31183;BME280;17813;0.000;0.000;2023-03-14T10:33:33;97153.53;;;16.63;50.51
31183;BME280;17813;0.000;0.000;2023-03-14T10:36:24;97162.84;;;15.87;50.45
31183;BME280;17813;0.000;0.000;2023-03-14T10:42:30;97161.81;;;16.83;51.09
31183;BME280;17813;0.000;0.000;2023-03-14T10:45:02;97162.56;;;17.19;49.30
31183;BME280;17813;0.000;0.000;2023-03-14T10:47:32;97174.56;;;17.23;49.40
31183;BME280;17813;0.000;0.000;2023-03-14T10:50:27;97178.63;;;16.98;48.69
31183;BME280;17813;0.000;0.000;2023-03-14T10:53:04;97177.22;;;16.81;50.53
31183;BME280;17813;0.000;0.000;2023-03-14T10:55:42;97191.06;;;16.04;51.06
31183;BME280;17813;0.000;0.000;2023-03-14T10:58:23;97195.84;;;15.94;51.79
31183;BME280;17813;0.000;0.000;2023-03-14T11:04:01;97191.41;;;15.86;52.25
31183;BME280;17813;0.000;0.000;2023-03-14T11:09:36;97194.53;;;15.52;53.07
31183;BME280;17813;0.000;0.000;2023-03-14T11:12:27;97188.88;;;15.32;53.74
31183;BME280;17813;0.000;0.000;2023-03-14T11:15:10;97191.97;;;15.21;53.79
31183;BME280;17813;0.000;0.000;2023-03-14T11:18:21;97191.38;;;15.11;53.49
31183;BME280;17813;0.000;0.000;2023-03-14T11:21:05;97177.16;;;15.33;54.33
31183;BME280;17813;0.000;0.000;2023-03-14T11:32:18;97187.09;;;16.00;52.88
31183;BME280;17813;0.000;0.000;2023-03-14T11:34:57;97176.31;;;16.59;51.51
31183;BME280;17813;0.000;0.000;2023-03-14T11:40:06;97171.34;;;16.70;50.55
31183;BME280;17813;0.000;0.000;2023-03-14T11:42:38;97173.97;;;16.34;51.83
31183;BME280;17813;0.000;0.000;2023-03-14T11:45:17;97173.81;;;16.21;51.35
31183;BME280;17813;0.000;0.000;2023-03-14T11:48:15;97167.53;;;16.29;51.57
31183;BME280;17813;0.000;0.000;2023-03-14T11:50:43;97162.53;;;16.40;52.03
31183;BME280;17813;0.000;0.000;2023-03-14T11:53:19;97160.63;;;16.70;51.37
31183;BME280;17813;0.000;0.000;2023-03-14T11:55:48;97151.91;;;17.26;50.15
31183;BME280;17813;0.000;0.000;2023-03-14T11:58:27;97136.63;;;17.48;50.81
31183;BME280;17813;0.000;0.000;2023-03-14T12:01:06;97142.97;;;17.96;50.61
31183;BME280;17813;0.000;0.000;2023-03-14T12:03:52;97150.09;;;17.82;47.63
31183;BME280;17813;0.000;0.000;2023-03-14T12:06:34;97144.28;;;17.51;48.80
31183;BME280;17813;0.000;0.000;2023-03-14T12:09:08;97147.25;;;17.34;48.10
31183;BME280;17813;0.000;0.000;2023-03-14T12:11:43;97153.78;;;17.04;49.82
31183;BME280;17813;0.000;0.000;2023-03-14T12:16:49;97138.97;;;17.08;48.28
31183;BME280;17813;0.000;0.000;2023-03-14T12:19:28;97150.66;;;17.22;49.99
31183;BME280;17813;0.000;0.000;2023-03-14T12:24:29;97146.91;;;17.44;48.31
31183;BME280;17813;0.000;0.000;2023-03-14T12:26:59;97145.25;;;17.43;48.92
31183;BME280;17813;0.000;0.000;2023-03-14T12:29:28;97153.09;;;17.66;49.84
31183;BME280;17813;0.000;0.000;2023-03-14T12:32:24;97145.78;;;17.60;48.69
31183;BME280;17813;0.000;0.000;2023-03-14T12:34:53;97155.66;;;17.81;49.11
31183;BME280;17813;0.000;0.000;2023-03-14T12:37:28;97156.75;;;17.65;48.05
31183;BME280;17813;0.000;0.000;2023-03-14T12:42:57;97155.88;;;16.51;49.57
31183;BME280;17813;0.000;0.000;2023-03-14T12:45:35;97153.78;;;16.32;50.49
31183;BME280;17813;0.000;0.000;2023-03-14T12:48:23;97149.22;;;15.82;51.33
31183;BME280;17813;0.000;0.000;2023-03-14T12:50:56;97142.28;;;16.17;51.86
31183;BME280;17813;0.000;0.000;2023-03-14T12:59:28;97140.91;;;15.91;50.00
31183;BME280;17813;0.000;0.000;2023-03-14T13:04:45;97139.91;;;15.55;53.00
31183;BME280;17813;0.000;0.000;2023-03-14T13:07:34;97138.34;;;15.68;53.08
31183;BME280;17813;0.000;0.000;2023-03-14T13:10:24;97133.19;;;15.96;52.35
31183;BME280;17813;0.000;0.000;2023-03-14T13:12:57;97137.13;;;16.00;52.23
31183;BME280;17813;0.000;0.000;2023-03-14T13:15:45;97127.16;;;16.09;52.47
31183;BME280;17813;0.000;0.000;2023-03-14T13:18:19;97120.16;;;16.23;51.40
31183;BME280;17813;0.000;0.000;2023-03-14T13:24:03;97129.44;;;16.27;50.93
31183;BME280;17813;0.000;0.000;2023-03-14T13:26:40;97122.53;;;16.32;51.06
31183;BME280;17813;0.000;0.000;2023-03-14T13:29:32;97115.34;;;16.18;50.75
31183;BME280;17813;0.000;0.000;2023-03-14T13:32:02;97113.34;;;16.05;50.78
31183;BME280;17813;0.000;0.000;2023-03-14T13:34:38;97108.75;;;15.85;51.48
31183;BME280;17813;0.000;0.000;2023-03-14T13:37:05;97118.44;;;15.71;52.06
31183;BME280;17813;0.000;0.000;2023-03-14T13:39:32;97111.53;;;15.77;51.74
31183;BME280;17813;0.000;0.000;2023-03-14T13:42:00;97117.22;;;15.88;52.70
31183;BME280;17813;0.000;0.000;2023-03-14T13:44:31;97110.66;;;16.05;51.35
31183;BME280;17813;0.000;0.000;2023-03-14T13:47:03;97114.38;;;15.90;51.84
31183;BME280;17813;0.000;0.000;2023-03-14T13:49:33;97104.19;;;15.56;51.87
31183;BME280;17813;0.000;0.000;2023-03-14T13:52:03;97112.53;;;15.61;52.17
31183;BME280;17813;0.000;0.000;2023-03-14T13:54:31;97110.78;;;15.30;52.35
31183;BME280;17813;0.000;0.000;2023-03-14T13:57:05;97101.66;;;15.25;52.48
31183;BME280;17813;0.000;0.000;2023-03-14T13:59:34;97112.22;;;15.18;51.83
31183;BME280;17813;0.000;0.000;2023-03-14T14:02:12;97104.56;;;14.77;53.51
31183;BME280;17813;0.000;0.000;2023-03-14T14:04:40;97110.63;;;14.71;53.40
31183;BME280;17813;0.000;0.000;2023-03-14T14:07:13;97109.91;;;14.77;53.42
31183;BME280;17813;0.000;0.000;2023-03-14T14:09:46;97101.38;;;14.82;53.75
31183;BME280;17813;0.000;0.000;2023-03-14T14:13:03;97105.81;;;14.90;53.54
31183;BME280;17813;0.000;0.000;2023-03-14T14:15:28;97104.50;;;14.86;53.99
31183;BME280;17813;0.000;0.000;2023-03-14T14:18:07;97127.81;;;14.69;55.68
31183;BME280;17813;0.000;0.000;2023-03-14T14:20:47;97134.84;;;14.62;56.38
31183;BME280;17813;0.000;0.000;2023-03-14T14:23:20;97136.13;;;14.43;57.10